Time;durP1;ratioP1;P1;durP2;ratioP2;P2;SDS_P1;SDS_P2;PMS_P1;PMS_P2;Temp;Humidity;BMP_temperature;BMP_pressure;BME280_temperature;BME280_humidity;BME280_pressure;Samples;Min_cycle;Max_cycle;Signal;HPM_P1;HPM_P2
2022/05/28 04:22:38;;;;;;;8.45;2.78;;;;;;;10.91;71.06;100768.44;5131608;27;20124;-79
2022/05/28 04:25:05;;;;;;;5.93;2.30;;;;;;;10.85;72.47;100755.78;5132368;28;20043;-80
2022/05/28 04:27:31;;;;;;;9.40;2.47;;;;;;;10.90;72.90;100769.44;5129893;28;20070;-79
2022/05/28 04:29:59;;;;;;;7.68;2.05;;;;;;;10.82;73.23;100777.41;5132230;28;20049;-79
2022/05/28 04:32:24;;;;;;;;;;;;;;;10.92;71.05;100777.28;5132452;28;20388;-79
2022/05/28 04:34:50;;;;;;;6.10;2.22;;;;;;;11.00;67.86;100774.63;5133085;28;19923;-79
2022/05/28 04:37:15;;;;;;;11.07;2.90;;;;;;;11.14;67.08;100777.47;5132042;28;20032;-79
2022/05/28 04:39:41;;;;;;;5.85;2.65;;;;;;;11.19;68.04;100781.50;5132607;28;20514;-79
2022/05/28 04:42:06;;;;;;;7.43;2.17;;;;;;;11.17;70.81;100780.84;5132213;28;20047;-79
2022/05/28 04:44:32;;;;;;;5.95;1.63;;;;;;;11.13;73.93;100775.81;5132106;28;20059;-80
2022/05/28 04:46:57;;;;;;;6.93;2.55;;;;;;;11.23;74.65;100777.50;5113886;28;20043;-80
2022/05/28 04:49:23;;;;;;;6.40;2.60;;;;;;;11.34;71.61;100779.84;5134127;28;20031;-80
2022/05/28 04:51:48;;;;;;;7.80;2.45;;;;;;;11.32;73.07;100774.69;5133146;28;20031;-79
2022/05/28 04:54:14;;;;;;;8.13;2.33;;;;;;;11.33;70.40;100775.50;5135636;28;20047;-79
2022/05/28 04:56:39;;;;;;;5.43;2.00;;;;;;;11.35;69.09;100774.38;5132146;28;20035;-79
2022/05/28 04:59:05;;;;;;;4.00;1.60;;;;;;;11.40;69.19;100779.19;5113890;28;20411;-80
2022/05/28 05:01:30;;;;;;;5.50;2.03;;;;;;;11.44;67.75;100772.53;5130229;28;20071;-79
2022/05/28 05:03:56;;;;;;;7.03;2.45;;;;;;;11.52;68.08;100771.69;5131333;28;20058;-79
2022/05/28 05:06:21;;;;;;;5.90;1.92;;;;;;;11.52;71.55;100780.53;5131061;28;20038;-79
2022/05/28 05:08:47;;;;;;;10.80;2.67;;;;;;;11.66;70.62;100784.34;5130935;28;20062;-79
2022/05/28 05:11:13;;;;;;;6.35;1.98;;;;;;;11.59;69.22;100789.53;5131959;28;20034;-79
2022/05/28 05:13:38;;;;;;;9.80;4.03;;;;;;;11.80;69.81;100785.50;5130781;28;20377;-79
2022/05/28 05:16:08;;;;;;;7.97;2.70;;;;;;;11.94;68.86;100780.38;5131435;27;20046;-79
2022/05/28 05:18:34;;;;;;;9.07;4.32;;;;;;;12.05;69.45;100789.03;5130176;28;20088;-79
2022/05/28 05:21:00;;;;;;;12.52;4.78;;;;;;;12.06;68.23;100772.88;5130751;28;20039;-79
2022/05/28 05:23:25;;;;;;;12.20;6.03;;;;;;;12.16;65.52;100791.34;5130624;28;20031;-79
2022/05/28 05:25:51;;;;;;;7.85;3.90;;;;;;;12.16;62.15;100794.84;5129321;28;20023;-80
2022/05/28 05:28:16;;;;;;;15.23;5.65;;;;;;;12.16;61.25;100794.84;5131461;28;20040;-79
2022/05/28 05:30:42;;;;;;;7.63;3.45;;;;;;;12.22;61.45;100796.84;5130525;28;20088;-79
2022/05/28 05:33:07;;;;;;;10.15;3.30;;;;;;;12.31;60.45;100802.16;5123824;28;20082;-79
2022/05/28 05:35:33;;;;;;;8.60;1.95;;;;;;;12.31;58.48;100800.31;5118427;28;20107;-80
2022/05/28 05:38:05;;;;;;;10.95;2.35;;;;;;;12.38;58.61;100795.94;5120092;28;20031;-79
2022/05/28 05:40:33;;;;;;;8.32;2.15;;;;;;;12.44;58.57;100803.28;5117339;28;20031;-80
2022/05/28 05:42:58;;;;;;;7.22;2.28;;;;;;;12.44;58.37;100791.75;5118820;28;20035;-79
2022/05/28 05:45:24;;;;;;;11.35;5.15;;;;;;;12.54;60.10;100800.44;5118112;28;20038;-80
2022/05/28 05:47:49;;;;;;;5.05;2.28;;;;;;;12.60;56.86;100794.41;5118971;28;20047;-78
2022/05/28 05:50:15;;;;;;;8.98;3.45;;;;;;;12.62;57.99;100789.69;5117513;28;20048;-79
2022/05/28 05:52:41;;;;;;;7.32;2.15;;;;;;;12.67;57.60;100803.38;5116209;28;20031;-78
2022/05/28 05:55:07;;;;;;;8.00;1.67;;;;;;;12.71;54.75;100799.38;5117523;28;20039;-75
2022/05/28 05:57:33;;;;;;;9.75;2.60;;;;;;;12.73;56.29;100789.31;5113314;28;20403;-77
2022/05/28 05:59:58;;;;;;;8.15;1.88;;;;;;;12.70;55.28;100800.34;5114465;28;20096;-77
2022/05/28 06:02:24;;;;;;;6.25;2.10;;;;;;;12.81;56.57;100791.13;5112718;28;20047;-77
2022/05/28 06:04:50;;;;;;;7.95;1.85;;;;;;;12.87;55.08;100790.44;5114377;28;20071;-78
2022/05/28 06:07:15;;;;;;;6.18;2.20;;;;;;;12.91;55.52;100805.13;5114420;28;20040;-77
2022/05/28 06:09:41;;;;;;;7.78;2.00;;;;;;;12.98;55.25;100795.38;5113193;28;20142;-77
2022/05/28 06:12:07;;;;;;;6.90;2.60;;;;;;;13.04;56.78;100801.88;5116497;28;20028;-79
2022/05/28 06:14:32;;;;;;;4.30;1.70;;;;;;;13.09;55.41;100796.81;5118318;28;20102;-81
2022/05/28 06:16:58;;;;;;;9.38;2.08;;;;;;;13.09;55.07;100791.47;5118742;28;20510;-79
2022/05/28 06:19:23;;;;;;;9.05;2.13;;;;;;;13.13;54.96;100794.63;5118346;28;20074;-76
2022/05/28 06:21:49;;;;;;;8.55;2.58;;;;;;;13.23;54.53;100805.97;5114953;28;20085;-77
2022/05/28 06:24:14;;;;;;;4.43;1.80;;;;;;;13.25;52.78;100794.09;5113658;28;20104;-77
2022/05/28 06:26:40;;;;;;;3.30;1.48;;;;;;;13.30;52.05;100794.41;5114131;28;20112;-79
2022/05/28 06:29:06;;;;;;;6.55;1.67;;;;;;;13.32;53.32;100796.88;5119447;28;20059;-80
2022/05/28 06:31:31;;;;;;;6.95;1.98;;;;;;;13.38;51.84;100798.03;5119071;28;20058;-80
2022/05/28 06:33:57;;;;;;;7.13;2.33;;;;;;;13.47;53.92;100799.63;5083116;28;20472;-80
2022/05/28 06:36:22;;;;;;;3.17;1.30;;;;;;;13.48;53.15;100788.72;5120279;28;20039;-79
2022/05/28 06:38:48;;;;;;;5.15;1.98;;;;;;;13.56;53.63;100801.19;5117904;28;20052;-79
2022/05/28 06:41:14;;;;;;;6.30;1.48;;;;;;;13.60;52.28;100796.34;5114631;28;20107;-78
2022/05/28 06:43:40;;;;;;;5.57;1.77;;;;;;;13.67;51.02;100795.44;5114964;28;20043;-72
2022/05/28 06:46:08;;;;;;;5.75;1.70;;;;;;;13.70;50.78;100794.25;5113739;28;20031;-77
2022/05/28 06:48:35;;;;;;;4.30;1.75;;;;;;;13.77;51.58;100796.03;5113351;28;20099;-77
2022/05/28 06:51:01;;;;;;;4.35;1.52;;;;;;;13.88;53.05;100797.44;5115061;28;20073;-77
2022/05/28 06:53:33;;;;;;;7.28;1.55;;;;;;;13.92;51.01;100795.22;5114425;28;20043;-78
2022/05/28 06:55:59;;;;;;;3.08;1.30;;;;;;;13.94;51.79;100796.69;5114806;28;20068;-77
2022/05/28 06:58:24;;;;;;;5.22;1.48;;;;;;;14.03;51.34;100800.97;5114420;28;20020;-78
2022/05/28 07:00:50;;;;;;;4.30;1.45;;;;;;;14.15;51.23;100797.84;5114156;28;20384;-77
2022/05/28 07:03:19;;;;;;;5.53;1.55;;;;;;;14.17;49.84;100788.63;5111944;28;20485;-76
2022/05/28 07:05:45;;;;;;;5.70;1.50;;;;;;;14.21;51.49;100789.06;5113425;28;20071;-76
2022/05/28 07:08:11;;;;;;;4.10;1.45;;;;;;;14.25;50.29;100785.84;5106113;27;20130;-74
2022/05/28 07:10:42;;;;;;;6.05;1.45;;;;;;;14.27;50.20;100781.13;5109044;28;20031;-74
2022/05/28 07:13:10;;;;;;;5.15;1.40;;;;;;;14.36;49.21;100789.94;5111893;28;20047;-75
2022/05/28 07:15:35;;;;;;;6.28;1.70;;;;;;;14.37;49.41;100783.53;5112644;28;20027;-75
2022/05/28 07:18:01;;;;;;;4.50;1.60;;;;;;;14.42;49.86;100793.72;5112604;28;20080;-75
2022/05/28 07:20:26;;;;;;;4.50;1.70;;;;;;;14.45;51.32;100783.44;5112755;28;20520;-75
2022/05/28 07:22:52;;;;;;;4.05;1.23;;;;;;;14.53;50.10;100779.84;5111444;28;20100;-75
2022/05/28 07:25:18;;;;;;;3.80;1.42;;;;;;;14.65;48.55;100786.41;5111452;28;20044;-76
2022/05/28 07:27:44;;;;;;;8.63;2.33;;;;;;;14.66;47.56;100788.06;5112586;28;20042;-75
2022/05/28 07:30:10;;;;;;;4.32;1.20;;;;;;;14.64;47.21;100785.59;5112561;28;20039;-75
2022/05/28 07:32:35;;;;;;;2.60;1.10;;;;;;;14.68;46.54;100783.38;5111969;28;20035;-76
2022/05/28 07:35:01;;;;;;;5.38;1.90;;;;;;;14.75;47.27;100768.19;5112686;28;20093;-77
2022/05/28 07:37:29;;;;;;;6.07;1.30;;;;;;;14.82;46.60;100776.31;5112378;28;20100;-76
2022/05/28 07:39:55;;;;;;;2.97;1.30;;;;;;;14.98;48.03;100773.41;5092166;28;20032;-77
2022/05/28 07:42:20;;;;;;;7.78;1.83;;;;;;;15.04;46.68;100769.97;5072876;28;20040;-76
2022/05/28 07:44:46;;;;;;;2.63;1.20;;;;;;;15.15;47.77;100772.16;5092105;28;20039;-76
2022/05/28 07:47:11;;;;;;;4.32;1.30;;;;;;;15.31;48.64;100763.03;5091518;28;20067;-76
2022/05/28 07:49:38;;;;;;;4.32;1.38;;;;;;;15.41;46.75;100768.91;5092275;28;20531;-76
2022/05/28 07:52:04;;;;;;;3.33;1.10;;;;;;;15.51;47.71;100763.22;5089944;28;20024;-76
2022/05/28 07:54:30;;;;;;;8.93;1.63;;;;;;;15.17;45.23;100766.59;5092852;28;20050;-77
2022/05/28 07:56:56;;;;;;;7.25;1.70;;;;;;;15.25;45.65;100762.97;5092205;28;20040;-77
2022/05/28 07:59:22;;;;;;;5.65;1.88;;;;;;;15.12;46.75;100758.28;5092253;28;20040;-76
2022/05/28 08:01:48;;;;;;;6.53;1.55;;;;;;;14.95;45.68;100748.81;5091068;28;20044;-76
2022/05/28 08:04:13;;;;;;;4.80;1.55;;;;;;;15.09;48.58;100747.94;5091724;28;20111;-76
2022/05/28 08:06:40;;;;;;;4.35;1.80;;;;;;;15.40;47.26;100744.97;5092160;28;20615;-77
2022/05/28 08:09:08;;;;;;;4.15;2.05;;;;;;;15.62;48.51;100743.94;5091964;28;20065;-76
2022/05/28 08:11:34;;;;;;;;;;;;;;;15.72;46.65;100754.34;5092409;28;20145;-76
2022/05/28 08:13:59;;;;;;;7.00;1.63;;;;;;;15.98;45.52;100754.53;5091425;28;20394;-76
2022/05/28 08:16:25;;;;;;;5.28;1.73;;;;;;;16.09;46.28;100747.78;5092104;28;20036;-77
2022/05/28 08:18:51;;;;;;;6.88;2.78;;;;;;;15.98;46.04;100743.78;5091876;28;20086;-76
2022/05/28 08:24:02;;;;;;;5.38;1.70;;;;;;;16.06;45.82;100748.19;5090882;28;20105;-76
2022/05/28 08:26:28;;;;;;;3.42;1.67;;;;;;;16.27;45.33;100737.34;5091807;28;20103;-75
2022/05/28 08:28:54;;;;;;;4.78;1.30;;;;;;;16.20;44.19;100732.97;5090425;28;20073;-76
2022/05/28 08:31:21;;;;;;;5.63;2.10;;;;;;;16.60;45.49;100736.69;5091650;28;20169;-77
2022/05/28 08:33:48;;;;;;;4.10;1.27;;;;;;;16.85;44.97;100737.00;5091257;28;20492;-76
2022/05/28 08:36:14;;;;;;;3.08;1.25;;;;;;;16.84;43.22;100729.16;5091806;28;20035;-77
2022/05/28 08:38:39;;;;;;;4.30;1.63;;;;;;;16.90;44.24;100737.25;5101055;28;20055;-76
2022/05/28 08:41:12;;;;;;;4.63;1.40;;;;;;;17.32;43.41;100729.84;5112338;28;20073;-77
2022/05/28 08:44:14;;;;;;;6.18;1.77;;;;;;;17.56;43.85;100726.56;5111306;28;20387;-76
2022/05/28 08:46:43;;;;;;;3.63;1.30;;;;;;;17.67;42.88;100732.34;5079809;28;20043;-76
2022/05/28 08:49:12;;;;;;;6.85;1.60;;;;;;;17.57;42.24;100719.31;5112247;28;20026;-75
2022/05/28 08:51:52;;;;;;;10.52;1.65;;;;;;;17.90;41.84;100730.91;5110709;28;20031;-76
2022/05/28 08:54:56;;;;;;;3.95;1.35;;;;;;;17.95;41.14;100724.91;5111727;28;20095;-76
2022/05/28 08:57:45;;;;;;;6.68;1.65;;;;;;;17.86;43.78;100718.88;5111720;28;20039;-76
2022/05/28 09:00:17;;;;;;;6.82;1.95;;;;;;;17.53;42.75;100710.78;5111952;28;20115;-77
2022/05/28 09:02:55;;;;;;;3.00;1.75;;;;;;;17.79;41.19;100719.94;5110758;28;20130;-76
2022/05/28 09:05:20;;;;;;;5.95;3.38;;;;;;;17.90;41.70;100722.81;5111766;28;20038;-76
2022/05/28 09:07:46;;;;;;;7.93;2.63;;;;;;;17.81;42.24;100713.31;5115122;28;20035;-78
2022/05/28 09:10:11;;;;;;;5.72;1.77;;;;;;;18.11;43.86;100713.66;5116698;28;20026;-78
2022/05/28 09:12:54;;;;;;;11.63;5.72;;;;;;;18.17;42.20;100709.28;5116606;28;20024;-77
2022/05/28 09:15:20;;;;;;;5.25;1.60;;;;;;;18.16;42.05;100713.84;5098871;28;20434;-78
2022/05/28 09:17:50;;;;;;;6.80;1.73;;;;;;;17.79;41.82;100715.38;5116835;28;20035;-76
2022/05/28 09:20:21;;;;;;;6.78;3.35;;;;;;;17.80;42.29;100711.66;5117681;28;20032;-77
2022/05/28 09:22:47;;;;;;;6.72;2.70;;;;;;;17.73;43.13;100710.00;5116907;28;20031;-78
2022/05/28 09:25:16;;;;;;;5.75;2.15;;;;;;;17.31;43.10;100709.34;5116434;28;20035;-79
2022/05/28 09:28:08;;;;;;;3.55;2.05;;;;;;;17.62;42.67;100712.25;5116112;28;20036;-77
2022/05/28 09:30:45;;;;;;;4.70;1.73;;;;;;;17.62;43.17;100700.66;5115484;28;20046;-77
2022/05/28 09:33:29;;;;;;;6.40;1.65;;;;;;;18.04;43.54;100701.25;5115507;28;20146;-77
2022/05/28 09:36:13;;;;;;;3.33;1.30;;;;;;;18.22;43.37;100700.56;5115024;28;20063;-77
2022/05/28 09:38:53;;;;;;;4.90;1.70;;;;;;;18.02;43.92;100706.03;5115695;28;20378;-77
2022/05/28 09:41:49;;;;;;;6.30;1.73;;;;;;;17.71;43.36;100701.25;5116107;28;20032;-77
2022/05/28 09:44:40;;;;;;;8.48;1.60;;;;;;;17.33;43.47;100699.19;5116104;28;20074;-77
2022/05/28 09:47:07;;;;;;;4.78;1.77;;;;;;;17.13;44.87;100698.34;5116906;28;20481;-77
2022/05/28 09:49:33;;;;;;;6.78;1.83;;;;;;;17.22;45.08;100694.44;5116788;28;20061;-77
2022/05/28 09:52:09;;;;;;;5.03;1.65;;;;;;;17.21;46.51;100690.91;5116116;28;20032;-78
2022/05/28 09:54:36;;;;;;;4.60;1.60;;;;;;;17.23;43.20;100686.16;5116245;28;20039;-77
2022/05/28 09:57:21;;;;;;;4.50;1.88;;;;;;;17.30;45.78;100687.00;5115770;28;20038;-76
2022/05/28 09:59:55;;;;;;;6.47;1.90;;;;;;;17.35;42.37;100689.91;5114550;28;20076;-77
2022/05/28 10:02:27;;;;;;;4.65;1.77;;;;;;;17.48;44.36;100686.38;5115989;28;20472;-77
2022/05/28 10:05:13;;;;;;;6.13;2.08;;;;;;;17.44;44.55;100687.81;5115802;28;20042;-77
2022/05/28 10:07:51;;;;;;;6.28;2.00;;;;;;;17.34;45.35;100687.38;5115012;28;20036;-77
2022/05/28 10:10:30;;;;;;;4.93;2.25;;;;;;;17.26;45.42;100679.53;5113466;28;20114;-77
2022/05/28 10:13:12;;;;;;;5.22;1.77;;;;;;;16.94;44.88;100679.28;5113537;28;20092;-78
2022/05/28 10:15:43;;;;;;;5.97;1.33;;;;;;;16.95;44.66;100677.41;5117470;28;20392;-76
2022/05/28 10:18:13;;;;;;;6.30;1.80;;;;;;;16.92;46.12;100664.38;5116129;28;20035;-76
2022/05/28 10:20:39;;;;;;;4.28;1.70;;;;;;;17.04;44.39;100668.94;5114936;28;20031;-77
2022/05/28 10:23:15;;;;;;;3.63;1.27;;;;;;;17.13;44.51;100666.06;5114742;28;20032;-77
2022/05/28 10:25:50;;;;;;;4.57;1.55;;;;;;;17.03;44.50;100659.22;5115701;28;20562;-77
2022/05/28 10:28:47;;;;;;;4.95;1.52;;;;;;;17.31;46.23;100652.81;5118999;28;20032;-77
2022/05/28 10:31:17;;;;;;;6.15;2.05;;;;;;;17.51;44.05;100655.50;5117753;28;20031;-77
2022/05/28 10:33:44;;;;;;;12.40;2.30;;;;;;;18.04;44.13;100653.53;5114307;28;20454;-78
2022/05/28 10:36:15;;;;;;;6.40;1.90;;;;;;;18.57;40.74;100652.50;5113734;28;20169;-77
2022/05/28 10:38:41;;;;;;;4.10;1.92;;;;;;;19.03;41.48;100641.44;5113960;28;20062;-76
2022/05/28 10:41:16;;;;;;;3.20;1.98;;;;;;;19.32;40.21;100641.84;5113647;28;20040;-76
2022/05/28 10:43:42;;;;;;;5.18;1.98;;;;;;;19.36;38.92;100641.16;5113476;28;20476;-76
2022/05/28 10:46:13;;;;;;;4.68;1.55;;;;;;;19.06;39.06;100635.59;5114014;28;20032;-76
2022/05/28 10:49:03;;;;;;;5.47;1.90;;;;;;;19.16;37.72;100635.94;5113919;28;20123;-76
2022/05/28 10:51:52;;;;;;;5.95;1.58;;;;;;;18.58;38.46;100635.25;5113408;28;20027;-76
2022/05/28 10:54:39;;;;;;;5.90;2.05;;;;;;;18.84;38.29;100628.91;5106780;28;20131;-75
2022/05/28 10:57:45;;;;;;;2.97;1.30;;;;;;;18.68;37.72;100631.09;5113469;28;20047;-75
2022/05/28 11:00:15;;;;;;;4.50;1.45;;;;;;;19.17;38.33;100629.50;5113540;28;20087;-75
2022/05/28 11:03:13;;;;;;;5.10;1.58;;;;;;;19.07;37.84;100621.06;5113353;28;20134;-75
2022/05/28 11:05:44;;;;;;;3.92;1.77;;;;;;;18.82;38.15;100622.91;5112261;28;20479;-76
2022/05/28 11:08:38;;;;;;;3.00;1.75;;;;;;;18.83;37.11;100611.88;5112006;28;20027;-77
2022/05/28 11:11:46;;;;;;;6.43;2.72;;;;;;;18.83;39.89;100619.16;5113205;28;20038;-76
2022/05/28 11:14:45;;;;;;;6.05;1.52;;;;;;;18.65;38.37;100607.22;5113237;28;20476;-77
2022/05/28 11:17:32;;;;;;;4.43;1.67;;;;;;;18.84;37.94;100605.44;5113160;28;20028;-77
2022/05/28 11:20:19;;;;;;;4.40;1.55;;;;;;;18.91;38.47;100602.72;5113005;28;20118;-77
2022/05/28 11:23:11;;;;;;;6.25;1.83;;;;;;;18.74;37.69;100599.72;5112626;28;20107;-77
2022/05/28 11:25:45;;;;;;;3.40;1.90;;;;;;;18.92;36.93;100596.28;5104664;27;20085;-76
2022/05/28 11:28:49;;;;;;;4.93;1.40;;;;;;;18.54;39.38;100586.31;5105152;28;20456;-76
2022/05/28 11:31:43;;;;;;;4.10;1.40;;;;;;;18.62;40.60;100586.06;5079521;28;20074;-76
2022/05/28 11:34:15;;;;;;;2.53;1.92;;;;;;;18.58;39.57;100584.84;5113441;28;20040;-77
2022/05/28 11:36:46;;;;;;;7.50;3.00;;;;;;;18.52;39.98;100580.34;5112829;28;20042;-78
2022/05/28 11:39:32;;;;;;;3.42;1.90;;;;;;;18.20;38.24;100575.94;5111647;28;20400;-76
2022/05/28 11:41:57;;;;;;;6.65;1.80;;;;;;;18.32;39.40;100580.44;5111848;28;20403;-75
2022/05/28 11:44:26;;;;;;;4.68;1.30;;;;;;;18.36;39.13;100570.88;5112301;28;20262;-76
2022/05/28 11:47:05;;;;;;;5.22;1.50;;;;;;;18.25;42.19;100568.03;5112448;28;20136;-76
2022/05/28 11:52:42;;;;;;;5.45;1.50;;;;;;;18.46;42.51;100567.72;5112286;28;20073;-76
2022/05/28 11:55:22;;;;;;;3.47;1.58;;;;;;;19.02;38.28;100558.78;5113092;28;20039;-77
2022/05/28 11:57:57;;;;;;;3.42;1.67;;;;;;;20.20;38.78;100552.31;5112506;28;20055;-75
2022/05/28 12:00:25;;;;;;;3.17;1.42;;;;;;;21.02;40.63;100552.56;5112154;28;20059;-76
2022/05/28 12:02:56;;;;;;;3.05;1.30;;;;;;;21.42;35.10;100554.59;5110955;28;20040;-76
2022/05/28 12:05:24;;;;;;;3.42;1.48;;;;;;;21.30;36.46;100549.16;5111926;28;20508;-76
2022/05/28 12:07:57;;;;;;;7.20;1.90;;;;;;;22.07;33.78;100540.75;5111928;28;20043;-75
2022/05/28 12:10:51;;;;;;;10.05;1.58;;;;;;;21.90;32.16;100536.09;5111703;28;20028;-76
2022/05/28 12:13:32;;;;;;;3.17;1.20;;;;;;;22.56;33.32;100530.28;5090593;28;20043;-76
2022/05/28 12:16:13;;;;;;;3.40;1.20;;;;;;;22.84;31.68;100526.69;5111878;28;20396;-77
2022/05/28 12:18:42;;;;;;;4.13;1.45;;;;;;;24.12;29.76;100519.19;5111858;28;20055;-75
2022/05/28 12:21:08;;;;;;;2.83;1.42;;;;;;;24.41;29.28;100524.41;5111307;28;20068;-76
2022/05/28 12:23:42;;;;;;;2.97;1.35;;;;;;;24.56;30.67;100519.91;5110924;28;20503;-73
2022/05/28 12:26:47;;;;;;;1.98;1.05;;;;;;;23.74;29.55;100515.50;5111341;28;20047;-74
2022/05/28 12:29:50;;;;;;;3.72;1.38;;;;;;;24.12;30.05;100505.56;5111306;28;20032;-74
2022/05/28 12:32:18;;;;;;;4.05;1.50;;;;;;;24.81;28.94;100499.41;5110778;28;20043;-77
2022/05/28 12:35:20;;;;;;;6.07;1.30;;;;;;;25.03;30.58;100507.47;5112219;28;20036;-77
2022/05/28 12:37:56;;;;;;;4.55;1.60;;;;;;;26.07;25.54;100501.16;5111938;28;20050;-75
2022/05/28 12:40:43;;;;;;;3.80;1.23;;;;;;;25.29;26.99;100497.56;5111550;28;20039;-75
2022/05/28 12:43:19;;;;;;;;;;;;;;;25.56;27.11;100494.69;5113299;28;20066;-76
2022/05/28 12:45:47;;;;;;;3.07;1.40;;;;;;;24.83;26.19;100483.63;5114501;28;20011;-76
2022/05/28 12:48:23;;;;;;;2.00;0.80;;;;;;;24.04;29.07;100484.28;5115752;28;20031;-77
2022/05/28 12:51:41;;;;;;;2.67;1.45;;;;;;;22.85;30.63;100487.59;5114336;28;20074;-76
2022/05/28 12:54:07;;;;;;;3.22;1.30;;;;;;;21.81;33.39;100480.59;5091381;28;20040;-76
2022/05/28 12:56:32;;;;;;;3.35;1.70;;;;;;;21.11;34.88;100483.44;5097125;28;20039;-76
2022/05/28 12:59:27;;;;;;;4.22;1.30;;;;;;;20.79;32.97;100483.78;5114158;28;20126;-77
2022/05/28 13:01:57;;;;;;;6.97;1.65;;;;;;;20.84;35.32;100478.50;5113904;28;20066;-77
2022/05/28 13:04:28;;;;;;;3.55;1.10;;;;;;;20.86;34.50;100476.41;5115729;28;20138;-76
2022/05/28 13:06:56;;;;;;;5.50;1.27;;;;;;;21.02;34.05;100466.72;5114101;28;20044;-76
2022/05/28 13:09:28;;;;;;;3.95;1.40;;;;;;;21.19;36.14;100471.41;5115494;28;20031;-76
2022/05/28 13:12:18;;;;;;;4.35;1.60;;;;;;;21.63;34.14;100469.94;5106573;28;20036;-75
2022/05/28 13:14:43;;;;;;;3.78;1.35;;;;;;;22.08;33.99;100464.56;5094384;28;20137;-77
2022/05/28 13:17:30;;;;;;;4.13;1.50;;;;;;;22.18;33.07;100450.41;5095023;28;20132;-77
2022/05/28 13:20:16;;;;;;;5.05;1.52;;;;;;;21.61;35.88;100453.09;5094886;28;20028;-77
2022/05/28 13:23:19;;;;;;;5.22;1.63;;;;;;;21.45;34.66;100435.69;5093699;28;20119;-78
2022/05/28 13:25:54;;;;;;;4.35;1.45;;;;;;;21.08;34.47;100446.81;5095005;28;20032;-78
2022/05/28 13:28:35;;;;;;;3.28;1.20;;;;;;;21.07;36.12;100447.88;5095007;28;20031;-76
2022/05/28 13:31:07;;;;;;;3.90;1.50;;;;;;;20.78;35.22;100449.66;5093310;28;20040;-77
2022/05/28 13:33:36;;;;;;;5.78;1.30;;;;;;;20.99;36.00;100442.00;5094397;28;20036;-78
2022/05/28 13:36:10;;;;;;;4.22;1.55;;;;;;;20.22;36.09;100440.16;5093225;28;20027;-78
2022/05/28 13:38:44;;;;;;;4.63;1.45;;;;;;;20.14;37.76;100435.06;5093863;28;20143;-77
2022/05/28 13:41:13;;;;;;;4.03;1.20;;;;;;;20.19;34.96;100432.50;5094641;28;20028;-77
2022/05/28 13:43:45;;;;;;;1.55;0.90;;;;;;;19.84;34.62;100428.88;5094511;28;20123;-77
2022/05/28 13:46:12;;;;;;;2.95;1.20;;;;;;;19.65;35.17;100420.81;5094507;28;20485;-76
2022/05/28 13:48:46;;;;;;;3.43;1.13;;;;;;;19.50;34.21;100423.91;5095001;28;20032;-77
2022/05/28 13:51:12;;;;;;;3.85;1.25;;;;;;;19.59;34.79;100419.03;5093027;28;20464;-76
2022/05/28 13:53:44;;;;;;;5.43;1.10;;;;;;;19.44;36.14;100415.88;5093498;28;20059;-75
2022/05/28 13:56:18;;;;;;;2.65;1.10;;;;;;;19.77;36.89;100416.28;5094193;28;20028;-76
2022/05/28 13:58:44;;;;;;;3.58;1.15;;;;;;;19.94;35.63;100410.22;5093984;28;20548;-75
2022/05/28 14:01:31;;;;;;;2.88;1.13;;;;;;;19.99;36.39;100413.88;5092777;28;20112;-76
2022/05/28 14:04:09;;;;;;;4.85;1.42;;;;;;;19.97;36.46;100409.78;5093813;28;20040;-77
2022/05/28 14:06:40;;;;;;;4.90;1.95;;;;;;;19.90;34.83;100403.63;5093918;28;20036;-76
2022/05/28 14:09:06;;;;;;;21.63;4.07;;;;;;;20.14;37.04;100394.50;5093768;28;20040;-76
2022/05/28 14:11:37;;;;;;;4.53;1.98;;;;;;;20.11;37.57;100403.09;5093577;28;20388;-76
2022/05/28 14:14:13;;;;;;;9.70;2.35;;;;;;;20.10;38.54;100409.56;5092389;28;20043;-76
2022/05/28 14:16:46;;;;;;;6.40;1.90;;;;;;;20.12;35.38;100407.44;5093732;28;20066;-77
2022/05/28 14:19:23;;;;;;;2.63;1.00;;;;;;;20.14;34.60;100397.22;5092510;28;20040;-76
2022/05/28 14:21:54;;;;;;;2.50;0.90;;;;;;;20.17;34.32;100394.06;5093520;28;20372;-76
2022/05/28 14:24:25;;;;;;;2.72;1.00;;;;;;;20.01;35.90;100395.53;5093715;28;20114;-76
2022/05/28 14:26:54;;;;;;;6.90;1.05;;;;;;;20.01;34.67;100397.41;5092382;28;20539;-77
2022/05/28 14:29:26;;;;;;;3.38;0.90;;;;;;;19.71;35.29;100395.59;5093522;28;20450;-76
2022/05/28 14:31:52;;;;;;;2.35;1.00;;;;;;;19.56;35.90;100397.84;5093086;28;20055;-76
2022/05/28 14:34:20;;;;;;;4.07;1.30;;;;;;;19.49;35.17;100395.22;5092013;28;20377;-77
2022/05/28 14:36:53;;;;;;;3.35;1.13;;;;;;;19.39;33.90;100388.72;5093230;28;20028;-76
2022/05/28 14:39:19;;;;;;;3.08;1.00;;;;;;;19.48;33.98;100387.34;5093173;28;20066;-75
2022/05/28 14:41:51;;;;;;;1.92;1.00;;;;;;;19.51;34.88;100384.19;5093022;28;20020;-76
2022/05/28 14:44:21;;;;;;;2.85;1.30;;;;;;;19.42;34.65;100375.56;5092171;28;20035;-76
2022/05/28 14:46:47;;;;;;;4.63;1.25;;;;;;;19.48;35.28;100381.94;5093340;28;20070;-76
2022/05/28 14:49:33;;;;;;;4.15;1.00;;;;;;;19.19;34.67;100373.59;5093054;28;20038;-75
2022/05/28 14:52:12;;;;;;;2.28;0.73;;;;;;;19.46;35.22;100375.94;5091668;28;20047;-76
2022/05/28 14:54:53;;;;;;;2.75;1.20;;;;;;;19.24;35.72;100364.81;5093033;28;20047;-76
2022/05/28 14:57:41;;;;;;;4.38;1.02;;;;;;;19.32;36.46;100374.47;5093356;28;20077;-76
2022/05/28 15:00:28;;;;;;;3.30;0.90;;;;;;;19.55;37.02;100368.34;5092984;28;20039;-76
2022/05/28 15:02:53;;;;;;;;;;;;;;;19.56;36.32;100378.94;5092974;28;20024;-76
2022/05/28 15:05:28;;;;;;;4.00;1.00;;;;;;;19.60;35.13;100363.94;5090709;28;20369;-75
2022/05/28 15:08:02;;;;;;;1.95;1.10;;;;;;;19.46;37.53;100360.56;5092901;28;20673;-76
2022/05/28 15:10:41;;;;;;;2.00;0.80;;;;;;;19.82;35.88;100363.41;5092857;28;20036;-76
2022/05/28 15:13:28;;;;;;;3.88;1.08;;;;;;;19.91;34.48;100354.75;5092667;28;20539;-76
2022/05/28 15:15:55;;;;;;;2.70;1.08;;;;;;;19.73;33.95;100354.81;5092302;28;20055;-76
2022/05/28 15:18:22;;;;;;;;;;;;;;;19.79;34.58;100357.41;5093118;28;20036;-75
2022/05/28 15:20:49;;;;;;;5.32;1.42;;;;;;;19.82;33.85;100350.72;5092635;28;19916;-75
2022/05/28 15:23:15;;;;;;;2.78;1.25;;;;;;;19.31;33.99;100348.53;5092387;28;20035;-76
2022/05/28 15:25:40;;;;;;;2.22;0.80;;;;;;;19.72;34.12;100345.06;5092417;28;20035;-75
2022/05/28 15:28:07;;;;;;;2.88;1.42;;;;;;;19.76;35.52;100344.38;5097127;27;20089;-74
2022/05/28 15:30:32;;;;;;;2.97;1.20;;;;;;;19.87;35.23;100333.81;5104298;28;20131;-75
2022/05/28 15:32:58;;;;;;;3.50;1.00;;;;;;;19.78;36.83;100339.56;5111573;28;20110;-75
2022/05/28 15:38:15;;;;;;;2.78;1.20;;;;;;;19.73;35.30;100327.78;5112285;28;20480;-75
2022/05/28 15:40:42;;;;;;;1.48;0.98;;;;;;;19.67;36.79;100329.53;5112229;28;20111;-74
2022/05/28 15:43:08;;;;;;;3.38;1.20;;;;;;;19.56;36.11;100327.59;5111165;28;20165;-74
2022/05/28 15:45:38;;;;;;;3.00;1.02;;;;;;;19.58;36.10;100328.22;5112219;28;20039;-75
2022/05/28 15:48:04;;;;;;;3.60;1.00;;;;;;;19.57;35.24;100328.44;5111905;28;20108;-74
2022/05/28 15:50:30;;;;;;;2.28;0.82;;;;;;;19.49;34.61;100321.44;5112231;28;20483;-73
2022/05/28 15:52:56;;;;;;;3.08;1.17;;;;;;;19.50;34.40;100323.13;5111558;28;20121;-75
2022/05/28 15:55:23;;;;;;;3.05;1.00;;;;;;;19.45;35.14;100310.28;5111904;28;20034;-75
2022/05/28 15:57:55;;;;;;;1.92;1.20;;;;;;;19.42;35.84;100321.53;5110490;28;20071;-76
2022/05/28 16:00:22;;;;;;;3.50;1.23;;;;;;;19.18;37.54;100309.84;5112343;28;20050;-77
2022/05/28 16:02:47;;;;;;;4.97;1.20;;;;;;;19.01;37.44;100313.38;5109766;28;20047;-76
2022/05/28 16:05:14;;;;;;;4.63;1.45;;;;;;;19.10;37.80;100306.59;5111660;28;20028;-76
2022/05/28 16:07:56;;;;;;;2.45;1.23;;;;;;;19.14;35.19;100297.84;5111824;28;20404;-76
2022/05/28 16:10:23;;;;;;;4.93;2.00;;;;;;;19.10;35.55;100298.50;5110536;28;20043;-76
2022/05/28 16:12:51;;;;;;;4.43;1.95;;;;;;;18.87;36.88;100301.94;5110793;28;20036;-75
2022/05/28 16:15:17;;;;;;;4.82;1.13;;;;;;;18.62;37.78;100301.97;5111973;28;20039;-75
2022/05/28 16:17:42;;;;;;;4.90;1.20;;;;;;;18.47;38.51;100293.44;5111376;28;20039;-74
2022/05/28 16:20:10;;;;;;;4.25;1.40;;;;;;;18.29;38.37;100297.75;5111939;28;20044;-75